createdAt,value
2018-07-19T00:01:26.272Z,22.38
2018-07-19T00:03:54.947Z,22.37
2018-07-19T00:06:23.638Z,22.32
2018-07-19T00:08:52.325Z,22.23
2018-07-19T00:11:20.980Z,22.26
2018-07-19T00:13:49.706Z,22.21
2018-07-19T00:16:18.414Z,22.18
2018-07-19T00:18:47.403Z,22.14
2018-07-19T00:21:18.897Z,22.06
2018-07-19T00:23:47.496Z,22.00
2018-07-19T00:26:16.210Z,21.92
2018-07-19T00:28:45.404Z,21.79
2018-07-19T00:31:14.038Z,21.84
2018-07-19T00:33:42.633Z,21.94
2018-07-19T00:36:11.238Z,21.87
2018-07-19T00:38:39.938Z,21.91
2018-07-19T00:41:08.965Z,21.90
2018-07-19T00:43:37.714Z,21.77
2018-07-19T00:46:06.384Z,21.84
2018-07-19T00:48:35.014Z,21.91
2018-07-19T00:51:03.645Z,21.83
2018-07-19T00:53:32.287Z,21.78
2018-07-19T00:56:00.920Z,21.91
2018-07-19T00:58:29.509Z,21.79
2018-07-19T01:00:58.174Z,21.85
2018-07-19T01:03:26.813Z,21.81
2018-07-19T01:05:55.432Z,21.77
2018-07-19T01:08:24.116Z,21.80
2018-07-19T01:10:52.737Z,21.72
2018-07-19T01:13:21.407Z,21.72
2018-07-19T01:15:50.013Z,21.72
2018-07-19T01:18:18.655Z,21.59
2018-07-19T01:20:47.295Z,21.61
2018-07-19T01:23:15.897Z,21.65
2018-07-19T01:25:44.530Z,21.69
2018-07-19T01:28:13.194Z,21.75
2018-07-19T01:30:41.828Z,21.76
2018-07-19T01:33:10.453Z,21.71
2018-07-19T01:35:39.049Z,21.74
2018-07-19T01:38:07.721Z,21.80
2018-07-19T01:40:36.296Z,21.86
2018-07-19T01:43:05.488Z,21.89
2018-07-19T01:45:34.150Z,21.89
2018-07-19T01:48:02.767Z,21.87
2018-07-19T01:50:31.372Z,21.85
2018-07-19T01:53:00.820Z,21.85
2018-07-19T01:55:29.513Z,21.91
2018-07-19T01:57:58.193Z,21.89
2018-07-19T02:00:26.893Z,22.00
2018-07-19T02:02:55.505Z,21.95
2018-07-19T02:05:24.146Z,21.92
2018-07-19T02:07:52.840Z,21.92
2018-07-19T02:10:21.529Z,21.93
2018-07-19T02:12:50.160Z,21.83
2018-07-19T02:15:18.797Z,21.85
2018-07-19T02:17:47.410Z,21.88
2018-07-19T02:20:16.062Z,21.87
2018-07-19T02:22:44.773Z,21.79
2018-07-19T02:25:13.423Z,21.73
2018-07-19T02:27:42.064Z,21.70
2018-07-19T02:30:10.706Z,21.69
2018-07-19T02:32:40.160Z,21.69
2018-07-19T02:35:08.973Z,21.62
2018-07-19T02:37:37.570Z,21.56
2018-07-19T02:40:06.191Z,21.62
2018-07-19T02:42:34.810Z,21.61
2018-07-19T02:45:03.465Z,21.60
2018-07-19T02:47:32.105Z,21.59
2018-07-19T02:50:00.799Z,21.67
2018-07-19T02:52:30.060Z,21.57
2018-07-19T02:54:58.677Z,21.55
2018-07-19T02:57:27.289Z,21.52
2018-07-19T02:59:55.960Z,21.45
2018-07-19T03:02:24.631Z,21.48
2018-07-19T03:04:53.266Z,21.54
2018-07-19T03:07:21.929Z,21.57
2018-07-19T03:09:50.616Z,21.50
2018-07-19T03:12:19.290Z,21.52
2018-07-19T03:14:49.020Z,21.46
2018-07-19T03:17:17.725Z,21.40
2018-07-19T03:19:46.363Z,21.25
2018-07-19T03:22:15.007Z,21.43
2018-07-19T03:24:43.661Z,21.28
2018-07-19T03:27:12.341Z,21.27
2018-07-19T03:29:40.990Z,21.25
2018-07-19T03:32:09.715Z,21.13
2018-07-19T03:34:38.314Z,21.17
2018-07-19T03:37:06.959Z,21.15
2018-07-19T03:39:35.570Z,21.20
2018-07-19T03:42:04.224Z,21.18
2018-07-19T03:44:32.832Z,21.22
2018-07-19T03:47:01.592Z,21.21
2018-07-19T03:49:30.219Z,21.27
2018-07-19T03:51:59.454Z,21.30
2018-07-19T03:54:28.113Z,21.25
2018-07-19T03:56:56.721Z,21.28
2018-07-19T03:59:25.388Z,21.23
2018-07-19T04:01:54.077Z,21.25
2018-07-19T04:04:22.678Z,21.30
2018-07-19T04:06:51.322Z,21.32
2018-07-19T04:09:19.946Z,21.33
2018-07-19T04:11:48.601Z,21.41
2018-07-19T04:14:17.257Z,21.37
2018-07-19T04:16:45.874Z,21.38
2018-07-19T04:19:14.472Z,21.32
2018-07-19T04:21:43.085Z,21.44
2018-07-19T04:24:12.483Z,21.38
2018-07-19T04:26:41.089Z,21.43
2018-07-19T04:29:09.717Z,21.40
2018-07-19T04:31:38.349Z,21.40
2018-07-19T04:34:07.377Z,21.42
2018-07-19T04:36:35.969Z,21.43
2018-07-19T04:39:06.289Z,21.60
2018-07-19T04:41:34.941Z,21.58
2018-07-19T04:44:03.560Z,21.58
2018-07-19T04:46:32.203Z,21.58
2018-07-19T04:49:00.837Z,21.55
2018-07-19T04:51:29.534Z,21.55
2018-07-19T04:53:58.159Z,21.54
2018-07-19T04:56:26.806Z,21.57
2018-07-19T04:58:56.093Z,21.54
2018-07-19T05:01:24.941Z,21.61
2018-07-19T05:03:53.590Z,21.63
2018-07-19T05:06:22.213Z,21.46
2018-07-19T05:08:50.861Z,21.55
2018-07-19T05:11:19.989Z,21.64
2018-07-19T05:13:48.627Z,21.69
2018-07-19T05:16:17.822Z,21.72
2018-07-19T05:18:46.521Z,21.81
2018-07-19T05:21:15.763Z,21.96
2018-07-19T05:23:44.806Z,21.78
2018-07-19T05:26:14.164Z,21.76
2018-07-19T05:28:42.789Z,22.00
2018-07-19T05:31:11.451Z,21.85
2018-07-19T05:33:40.140Z,22.02
2018-07-19T05:36:09.402Z,22.05
2018-07-19T05:38:38.106Z,22.04
2018-07-19T05:41:07.074Z,22.08
2018-07-19T05:43:35.742Z,21.96
2018-07-19T05:46:04.425Z,21.98
2018-07-19T05:48:33.210Z,21.93
2018-07-19T05:51:01.975Z,21.81
2018-07-19T05:53:30.649Z,21.92
2018-07-19T05:55:59.402Z,22.17
2018-07-19T05:58:28.247Z,22.16
2018-07-19T06:00:56.921Z,21.97
2018-07-19T06:03:26.393Z,22.09
2018-07-19T06:05:57.772Z,22.08
2018-07-19T06:08:26.896Z,22.00
2018-07-19T06:10:55.544Z,22.12
2018-07-19T06:13:25.528Z,22.02
2018-07-19T06:15:54.354Z,22.02
2018-07-19T06:18:23.057Z,21.94
2018-07-19T06:20:51.749Z,22.13
2018-07-19T06:23:20.413Z,22.19
2018-07-19T06:25:49.104Z,22.31
2018-07-19T06:28:17.841Z,22.50
2018-07-19T06:30:46.410Z,22.61
2018-07-19T06:33:15.730Z,22.55
2018-07-19T06:35:44.423Z,22.35
2018-07-19T06:38:13.162Z,22.52
2018-07-19T06:40:42.043Z,22.64
2018-07-19T06:43:11.045Z,22.73
2018-07-19T06:45:39.883Z,22.97
2018-07-19T06:48:08.577Z,23.14
2018-07-19T06:50:37.764Z,22.97
2018-07-19T06:53:13.885Z,23.11
2018-07-19T06:55:42.516Z,23.15
2018-07-19T06:58:11.257Z,23.31
2018-07-19T07:00:40.630Z,23.20
2018-07-19T07:03:09.276Z,23.33
2018-07-19T07:05:37.878Z,23.52
2018-07-19T07:08:06.685Z,23.48
2018-07-19T07:10:35.453Z,23.41
2018-07-19T07:13:04.234Z,23.85
2018-07-19T07:15:32.886Z,23.71
2018-07-19T07:18:01.522Z,23.63
2018-07-19T07:20:30.161Z,23.63
2018-07-19T07:22:58.776Z,23.65
2018-07-19T07:25:27.496Z,23.60
2018-07-19T07:27:56.409Z,23.89
2018-07-19T07:30:25.276Z,24.09
2018-07-19T07:32:54.042Z,23.91
2018-07-19T07:35:22.905Z,23.99
2018-07-19T07:37:51.525Z,23.93
2018-07-19T07:40:20.149Z,24.15
2018-07-19T07:42:48.863Z,24.35
2018-07-19T07:45:18.106Z,24.56
2018-07-19T07:47:46.721Z,24.52
2018-07-19T07:50:15.388Z,24.30
2018-07-19T07:52:43.987Z,24.30
2018-07-19T07:55:12.649Z,24.51
2018-07-19T07:57:41.315Z,24.43
2018-07-19T08:00:10.021Z,24.38
2018-07-19T08:02:38.733Z,24.06
2018-07-19T08:05:07.514Z,24.17
2018-07-19T08:07:36.194Z,24.05
2018-07-19T08:10:05.023Z,24.32
2018-07-19T08:12:33.629Z,24.66
2018-07-19T08:15:02.381Z,24.77
2018-07-19T08:17:31.301Z,24.93
2018-07-19T08:20:00.075Z,24.70
2018-07-19T08:22:28.934Z,24.69
2018-07-19T08:24:57.529Z,24.80
2018-07-19T08:27:26.341Z,24.68
2018-07-19T08:29:55.041Z,24.67
2018-07-19T08:32:23.685Z,24.57
2018-07-19T08:34:52.286Z,24.57
2018-07-19T08:37:20.978Z,24.80
2018-07-19T08:39:49.685Z,24.94
2018-07-19T08:42:18.319Z,24.73
2018-07-19T08:44:46.938Z,24.93
2018-07-19T08:47:16.300Z,25.00
2018-07-19T08:49:46.621Z,24.91
2018-07-19T08:52:15.471Z,25.01
2018-07-19T08:54:44.202Z,25.16
2018-07-19T08:57:12.930Z,25.27
2018-07-19T08:59:41.641Z,25.18
2018-07-19T09:02:10.295Z,25.26
2018-07-19T09:04:39.087Z,25.42
2018-07-19T09:07:07.762Z,25.53
2018-07-19T09:09:36.435Z,25.27
2018-07-19T09:12:05.171Z,25.33
2018-07-19T09:14:33.881Z,25.44
2018-07-19T09:17:02.566Z,25.67
2018-07-19T09:19:31.263Z,25.57
2018-07-19T09:21:59.882Z,25.64
2018-07-19T09:24:28.575Z,25.86
2018-07-19T09:26:57.277Z,25.87
2018-07-19T09:29:25.960Z,25.97
2018-07-19T09:31:55.035Z,25.73
2018-07-19T09:34:23.715Z,25.69
2018-07-19T09:36:52.514Z,25.89
2018-07-19T09:39:21.420Z,26.06
2018-07-19T09:41:50.116Z,26.31
2018-07-19T09:44:19.190Z,26.61
2018-07-19T09:46:48.334Z,26.60
2018-07-19T09:49:17.019Z,26.55
2018-07-19T09:51:45.635Z,26.33
2018-07-19T09:54:25.344Z,26.29
2018-07-19T09:56:53.981Z,26.16
2018-07-19T09:59:22.707Z,26.32
2018-07-19T10:01:51.326Z,26.23
2018-07-19T10:04:20.486Z,26.42
2018-07-19T10:06:49.089Z,26.72
2018-07-19T10:09:17.758Z,26.85
2018-07-19T10:11:46.406Z,27.03
2018-07-19T10:14:15.091Z,27.06
2018-07-19T10:16:43.712Z,26.94
2018-07-19T10:19:12.310Z,26.98
2018-07-19T10:21:41.146Z,27.17
2018-07-19T10:24:09.944Z,26.98
2018-07-19T10:26:38.656Z,27.20
2018-07-19T10:29:07.329Z,27.18
2018-07-19T10:31:36.002Z,27.43
2018-07-19T10:34:04.747Z,27.35
2018-07-19T10:36:33.437Z,27.58
2018-07-19T10:39:02.150Z,27.43
2018-07-19T10:41:31.125Z,27.35
2018-07-19T10:43:59.880Z,27.43
2018-07-19T10:46:28.555Z,27.51
2018-07-19T10:48:57.826Z,27.67
2018-07-19T10:51:26.610Z,27.60
2018-07-19T10:53:55.706Z,27.44
2018-07-19T10:56:24.375Z,27.16
2018-07-19T10:58:53.076Z,27.34
2018-07-19T11:01:21.792Z,27.50
2018-07-19T11:03:51.537Z,27.98
2018-07-19T11:06:20.323Z,28.15
2018-07-19T11:08:49.059Z,28.27
2018-07-19T11:11:18.009Z,28.04
2018-07-19T11:13:46.602Z,28.36
2018-07-19T11:16:15.277Z,28.49
2018-07-19T11:18:44.564Z,28.32
2018-07-19T11:21:13.345Z,28.14
2018-07-19T11:23:42.071Z,28.18
2018-07-19T11:26:10.809Z,28.46
2018-07-19T11:28:39.467Z,28.40
2018-07-19T11:31:08.157Z,28.64
2018-07-19T11:33:36.811Z,29.08
2018-07-19T11:36:05.586Z,29.40
2018-07-19T11:38:34.355Z,29.56
2018-07-19T11:41:03.055Z,29.57
2018-07-19T11:43:31.752Z,29.27
2018-07-19T11:46:00.402Z,29.27
2018-07-19T11:48:29.060Z,29.25
2018-07-19T11:50:57.760Z,29.02
2018-07-19T11:53:26.444Z,28.92
2018-07-19T11:55:55.057Z,28.92
2018-07-19T11:58:23.675Z,29.09
2018-07-19T12:00:52.323Z,29.07
2018-07-19T12:03:21.133Z,29.75
2018-07-19T12:05:49.788Z,29.54
2018-07-19T12:08:18.467Z,29.89
2018-07-19T12:10:47.079Z,29.61
2018-07-19T12:13:15.654Z,29.87
2018-07-19T12:15:44.300Z,29.84
2018-07-19T12:18:12.960Z,29.83
2018-07-19T12:20:41.984Z,30.02
2018-07-19T12:23:11.348Z,29.92
2018-07-19T12:25:40.182Z,29.45
2018-07-19T12:28:08.781Z,29.66
2018-07-19T12:30:37.502Z,30.01
2018-07-19T12:33:06.170Z,30.55
2018-07-19T12:35:34.809Z,30.23
2018-07-19T12:38:03.571Z,29.91
2018-07-19T12:40:32.441Z,30.43
2018-07-19T12:43:01.603Z,30.18
2018-07-19T12:45:30.406Z,29.84
2018-07-19T12:47:59.025Z,30.35
2018-07-19T12:50:28.202Z,30.31
2018-07-19T12:52:56.996Z,30.28
2018-07-19T12:55:25.606Z,30.67
2018-07-19T12:57:56.305Z,30.77
2018-07-19T13:00:24.950Z,31.28
2018-07-19T13:02:53.770Z,31.36
2018-07-19T13:05:23.019Z,31.38
2018-07-19T13:07:51.804Z,31.84
2018-07-19T13:10:20.526Z,31.77
2018-07-19T13:12:49.550Z,31.54
2018-07-19T13:15:18.329Z,31.96
2018-07-19T13:17:47.034Z,31.41
2018-07-19T13:20:15.982Z,31.82
2018-07-19T13:22:46.041Z,32.02
2018-07-19T13:25:14.959Z,31.87
2018-07-19T13:27:43.775Z,32.59
2018-07-19T13:30:14.078Z,32.50
2018-07-19T13:32:42.638Z,31.80
2018-07-19T13:35:12.303Z,32.15
2018-07-19T13:37:40.956Z,32.52
2018-07-19T13:40:09.623Z,32.44
2018-07-19T13:42:38.459Z,32.58
2018-07-19T13:45:07.305Z,32.14
2018-07-19T13:47:35.915Z,31.82
2018-07-19T13:50:05.085Z,32.07
2018-07-19T13:52:44.850Z,32.33
2018-07-19T13:55:13.510Z,31.58
2018-07-19T13:57:42.377Z,31.48
2018-07-19T14:00:11.091Z,31.38
2018-07-19T14:02:39.713Z,31.57
2018-07-19T14:05:08.642Z,31.56
2018-07-19T14:07:37.253Z,31.60
2018-07-19T14:10:05.851Z,31.45
2018-07-19T14:12:34.451Z,31.80
2018-07-19T14:15:03.045Z,32.50
2018-07-19T14:17:31.653Z,32.89
2018-07-19T14:20:00.244Z,33.43
2018-07-19T14:22:28.837Z,33.49
2018-07-19T14:24:58.522Z,33.38
2018-07-19T14:27:27.408Z,33.05
2018-07-19T14:29:56.076Z,33.43
2018-07-19T14:32:31.071Z,34.06
2018-07-19T14:35:00.303Z,34.11
2018-07-19T14:37:28.994Z,34.44
2018-07-19T14:39:57.645Z,34.90
2018-07-19T14:42:26.288Z,35.45
2018-07-19T14:44:54.914Z,35.37
2018-07-19T14:47:23.571Z,35.72
2018-07-19T14:49:52.199Z,35.39
2018-07-19T14:52:20.889Z,36.00
2018-07-19T14:54:49.494Z,36.78
2018-07-19T14:57:18.298Z,37.08
2018-07-19T14:59:46.963Z,36.58
2018-07-19T15:02:15.563Z,36.74
2018-07-19T15:04:44.260Z,37.00
2018-07-19T15:07:12.923Z,38.07
2018-07-19T15:09:43.854Z,38.18
2018-07-19T15:12:12.595Z,37.24
2018-07-19T15:14:41.459Z,36.47
2018-07-19T15:17:10.085Z,37.13
2018-07-19T15:19:39.591Z,37.14
2018-07-19T15:22:08.253Z,36.88
2018-07-19T15:24:37.006Z,37.01
2018-07-19T15:27:05.604Z,37.09
2018-07-19T15:29:34.351Z,37.29
2018-07-19T15:32:03.067Z,38.58
2018-07-19T15:34:31.829Z,38.40
2018-07-19T15:37:00.688Z,37.83
2018-07-19T15:39:29.524Z,38.14
2018-07-19T15:41:58.307Z,38.08
2018-07-19T15:44:28.090Z,37.48
2018-07-19T15:46:56.871Z,36.14
2018-07-19T15:49:25.608Z,37.24
2018-07-19T15:51:54.902Z,36.47
2018-07-19T15:54:23.654Z,36.45
2018-07-19T15:56:52.511Z,36.88
2018-07-19T15:59:21.185Z,37.70
2018-07-19T16:01:49.928Z,37.49
2018-07-19T16:04:18.590Z,37.77
2018-07-19T16:06:47.287Z,38.58
2018-07-19T16:09:15.935Z,37.17
2018-07-19T16:11:44.714Z,37.00
2018-07-19T16:14:13.770Z,37.37
2018-07-19T16:16:42.502Z,37.89
2018-07-19T16:19:11.112Z,37.48
2018-07-19T16:21:39.733Z,37.95
2018-07-19T16:24:08.759Z,38.51
2018-07-19T16:26:37.487Z,39.56
2018-07-19T16:29:06.306Z,39.41
2018-07-19T16:31:35.092Z,39.31
2018-07-19T16:34:04.148Z,38.14
2018-07-19T16:36:33.146Z,37.94
2018-07-19T16:39:02.105Z,38.44
2018-07-19T16:41:30.814Z,37.35
2018-07-19T16:44:00.315Z,37.83
2018-07-19T16:46:29.432Z,37.99
2018-07-19T16:48:58.155Z,36.78
2018-07-19T16:51:26.894Z,36.76
2018-07-19T16:53:55.658Z,37.58
2018-07-19T16:56:24.362Z,38.07
2018-07-19T16:58:53.123Z,37.82
2018-07-19T17:01:21.858Z,38.17
2018-07-19T17:03:50.642Z,38.52
2018-07-19T17:06:19.366Z,38.76
2018-07-19T17:08:48.928Z,38.54
2018-07-19T17:11:17.731Z,37.96
2018-07-19T17:13:46.418Z,37.79
2018-07-19T17:16:15.337Z,36.68
2018-07-19T17:18:44.402Z,36.50
2018-07-19T17:21:13.318Z,37.14
2018-07-19T17:23:42.079Z,37.49
2018-07-19T17:26:10.849Z,37.99
2018-07-19T17:28:39.536Z,37.86
2018-07-19T17:31:10.004Z,38.37
2018-07-19T17:33:38.846Z,38.60
2018-07-19T17:36:07.913Z,38.20
2018-07-19T17:38:36.818Z,38.04
2018-07-19T17:41:05.516Z,37.66
2018-07-19T17:43:34.250Z,37.39
2018-07-19T17:46:02.920Z,37.38
2018-07-19T17:48:31.602Z,36.41
2018-07-19T17:51:00.367Z,34.94
2018-07-19T17:53:29.916Z,33.99
2018-07-19T17:55:58.790Z,32.61
2018-07-19T17:58:28.120Z,31.93
2018-07-19T18:00:56.989Z,31.15
2018-07-19T18:03:25.634Z,30.53
2018-07-19T18:05:54.297Z,30.08
2018-07-19T18:08:23.121Z,29.73
2018-07-19T18:10:52.070Z,29.26
2018-07-19T18:13:20.710Z,28.98
2018-07-19T18:15:50.713Z,28.89
2018-07-19T18:18:19.767Z,28.58
2018-07-19T18:20:50.083Z,28.42
2018-07-19T18:23:18.832Z,28.27
2018-07-19T18:25:47.627Z,28.02
2018-07-19T18:28:16.831Z,27.93
2018-07-19T18:30:46.626Z,27.82
2018-07-19T18:33:20.969Z,27.75
2018-07-19T18:35:50.533Z,27.52
2018-07-19T18:38:19.513Z,27.53
2018-07-19T18:40:48.248Z,27.39
2018-07-19T18:43:17.517Z,27.19
2018-07-19T18:45:46.323Z,27.11
2018-07-19T18:48:15.016Z,26.95
2018-07-19T18:50:50.133Z,26.92
2018-07-19T18:53:18.894Z,26.86
2018-07-19T18:55:47.554Z,26.70
2018-07-19T18:58:16.384Z,26.66
2018-07-19T19:00:45.138Z,26.53
2018-07-19T19:03:13.873Z,26.44
2018-07-19T19:05:42.770Z,26.22
2018-07-19T19:08:11.608Z,26.15
2018-07-19T19:10:40.297Z,26.12
2018-07-19T19:13:09.120Z,26.06
2018-07-19T19:15:37.766Z,26.04
2018-07-19T19:18:06.540Z,25.91
2018-07-19T19:20:35.285Z,25.83
2018-07-19T19:23:03.954Z,25.89
2018-07-19T19:25:32.609Z,25.87
2018-07-19T19:28:01.277Z,25.78
2018-07-19T19:30:29.940Z,25.79
2018-07-19T19:32:58.906Z,25.64
2018-07-19T19:35:27.680Z,25.66
2018-07-19T19:37:56.317Z,25.48
2018-07-19T19:40:25.054Z,25.30
2018-07-19T19:42:53.825Z,25.43
2018-07-19T19:45:22.562Z,25.20
2018-07-19T19:47:51.620Z,25.04
2018-07-19T19:50:20.531Z,24.95
2018-07-19T19:52:49.823Z,25.03
2018-07-19T19:55:18.511Z,24.92
2018-07-19T19:57:48.127Z,24.77
2018-07-19T20:00:16.796Z,24.61
2018-07-19T20:02:45.509Z,24.69
2018-07-19T20:05:14.168Z,24.57
2018-07-19T20:07:43.104Z,24.57
2018-07-19T20:10:11.852Z,24.37
2018-07-19T20:12:40.550Z,24.37
2018-07-19T20:15:09.253Z,24.38
2018-07-19T20:17:37.919Z,24.34
2018-07-19T20:20:11.404Z,24.29
2018-07-19T20:22:40.262Z,24.23
2018-07-19T20:25:09.282Z,24.27
2018-07-19T20:27:38.029Z,24.14
2018-07-19T20:30:06.723Z,24.06
2018-07-19T20:32:36.033Z,24.02
2018-07-19T20:35:04.835Z,23.92
2018-07-19T20:37:33.624Z,23.86
2018-07-19T20:40:02.874Z,23.79
2018-07-19T20:42:31.557Z,23.72
2018-07-19T20:45:00.223Z,23.70
2018-07-19T20:47:30.036Z,23.65
2018-07-19T20:49:58.877Z,23.76
2018-07-19T20:52:27.700Z,23.69
2018-07-19T20:54:56.453Z,23.54
2018-07-19T20:57:25.115Z,23.52
2018-07-19T20:59:53.774Z,23.47
2018-07-19T21:02:22.491Z,23.37
2018-07-19T21:04:51.274Z,23.37
2018-07-19T21:07:20.066Z,23.43
2018-07-19T21:09:48.716Z,23.28
2018-07-19T21:12:17.462Z,23.21
2018-07-19T21:14:46.149Z,23.07
2018-07-19T21:17:14.888Z,23.09
2018-07-19T21:19:43.597Z,23.13
2018-07-19T21:22:12.396Z,23.02
2018-07-19T21:24:41.153Z,22.96
2018-07-19T21:27:11.779Z,22.92
2018-07-19T21:29:40.599Z,22.84
2018-07-19T21:32:09.336Z,22.77
2018-07-19T21:34:37.987Z,22.76
2018-07-19T21:37:06.833Z,22.76
2018-07-19T21:39:35.524Z,22.70
2018-07-19T21:42:06.149Z,22.63
2018-07-19T21:44:38.633Z,22.55
2018-07-19T22:00:02.620Z,21.97
2018-07-19T22:02:31.425Z,21.86
2018-07-19T22:05:00.659Z,21.77
2018-07-19T22:07:30.006Z,21.97
2018-07-19T22:09:58.888Z,22.09
2018-07-19T22:12:27.601Z,22.16
2018-07-19T22:14:56.250Z,22.14
2018-07-19T22:17:24.952Z,22.29
2018-07-19T22:19:53.651Z,22.15
2018-07-19T22:22:22.400Z,22.06
2018-07-19T22:24:51.063Z,22.34
2018-07-19T22:27:19.678Z,22.12
2018-07-19T22:29:48.373Z,22.17
2018-07-19T22:32:17.044Z,22.00
2018-07-19T22:34:45.643Z,21.82
2018-07-19T22:37:14.281Z,21.69
2018-07-19T22:39:43.015Z,21.69
2018-07-19T22:42:11.656Z,21.66
2018-07-19T22:44:40.414Z,21.76
2018-07-19T22:47:09.130Z,21.87
2018-07-19T22:49:37.762Z,21.85
2018-07-19T22:52:06.422Z,21.90
2018-07-19T22:54:35.040Z,22.00
2018-07-19T22:57:03.714Z,22.02
2018-07-19T22:59:33.162Z,22.05
2018-07-19T23:02:01.817Z,22.00
2018-07-19T23:04:30.518Z,21.97
2018-07-19T23:06:59.265Z,21.84
2018-07-19T23:09:28.023Z,22.06
2018-07-19T23:11:56.701Z,21.93
2018-07-19T23:14:25.376Z,21.89
2018-07-19T23:16:54.101Z,21.90
2018-07-19T23:19:22.768Z,21.95
2018-07-19T23:21:51.536Z,21.87
2018-07-19T23:24:20.387Z,22.02
2018-07-19T23:26:49.216Z,21.94
2018-07-19T23:29:18.021Z,21.86
2018-07-19T23:31:46.734Z,21.77
2018-07-19T23:34:16.113Z,21.88
2018-07-19T23:36:48.393Z,21.79
2018-07-19T23:39:51.130Z,21.79
2018-07-19T23:42:28.614Z,21.77
2018-07-19T23:45:08.218Z,21.74
2018-07-19T23:47:39.021Z,21.72
2018-07-19T23:50:07.728Z,21.84
2018-07-19T23:52:36.371Z,21.88
2018-07-19T23:55:05.201Z,21.73
2018-07-19T23:57:33.876Z,21.67
